createdAt,value
2023-05-16T00:00:48.589Z,45.79
2023-05-16T00:03:17.512Z,46.25
2023-05-16T00:21:47.028Z,46.19
2023-05-16T00:58:42.916Z,46.32
2023-05-16T01:04:13.863Z,46.83
2023-05-16T01:13:08.528Z,47.49
2023-05-16T01:15:45.861Z,47.70
2023-05-16T01:18:24.054Z,48.16
2023-05-16T01:20:59.865Z,48.73
2023-05-16T01:23:49.197Z,48.78
2023-05-16T01:26:22.782Z,48.99
2023-05-16T01:28:52.987Z,49.07
2023-05-16T01:31:21.830Z,49.20
2023-05-16T01:33:59.679Z,49.29
2023-05-16T01:36:34.616Z,49.40
2023-05-16T01:39:13.252Z,49.69
2023-05-16T01:41:49.518Z,49.66
2023-05-16T01:44:23.124Z,49.80
2023-05-16T01:46:58.157Z,49.88
2023-05-16T01:49:30.710Z,49.97
2023-05-16T01:52:02.621Z,50.13
2023-05-16T01:54:34.746Z,49.86
2023-05-16T01:57:15.004Z,50.15
2023-05-16T01:59:52.506Z,50.12
2023-05-16T02:02:20.800Z,50.02
2023-05-16T02:04:49.348Z,49.75
2023-05-16T02:07:27.236Z,49.94
2023-05-16T02:12:49.775Z,49.76
2023-05-16T02:15:23.028Z,49.98
2023-05-16T02:17:59.506Z,49.86
2023-05-16T02:20:27.797Z,49.99
2023-05-16T02:22:58.768Z,50.38
2023-05-16T02:25:27.208Z,50.51
2023-05-16T02:27:58.195Z,50.57
2023-05-16T02:33:28.447Z,50.51
2023-05-16T02:35:57.317Z,50.90
2023-05-16T02:38:29.749Z,50.82
2023-05-16T02:50:45.874Z,50.56
2023-05-16T06:43:29.264Z,51.04
2023-05-16T06:46:06.047Z,50.82
2023-05-16T06:51:32.802Z,50.82
2023-05-16T07:47:55.299Z,51.02
2023-05-16T07:50:24.213Z,51.15
2023-05-16T07:55:50.691Z,50.77
2023-05-16T08:01:09.403Z,50.64
2023-05-16T08:36:20.046Z,49.78
2023-05-16T08:38:53.989Z,49.43
2023-05-16T08:47:15.541Z,49.05
2023-05-16T08:49:46.544Z,49.14
2023-05-16T08:55:49.092Z,48.38
2023-05-16T09:22:04.791Z,43.12
2023-05-16T09:27:22.355Z,43.80
2023-05-16T09:30:07.137Z,42.97
2023-05-16T09:35:19.491Z,42.12
2023-05-16T09:38:13.411Z,42.15
2023-05-16T09:40:45.467Z,41.08
2023-05-16T09:46:01.375Z,40.83
2023-05-16T09:51:44.272Z,40.82
2023-05-16T09:54:12.694Z,40.76
2023-05-16T09:59:46.439Z,37.98
2023-05-16T10:02:20.264Z,38.43
2023-05-16T10:04:49.071Z,38.57
2023-05-16T10:07:19.958Z,38.95
2023-05-16T10:09:49.409Z,38.95
2023-05-16T10:12:18.636Z,39.03
2023-05-16T10:14:51.044Z,39.35
2023-05-16T10:17:21.950Z,39.69
2023-05-16T10:19:53.181Z,40.08
2023-05-16T10:22:40.615Z,40.27
2023-05-16T10:25:33.651Z,41.05
2023-05-16T10:28:03.536Z,41.49
2023-05-16T10:30:33.481Z,41.10
2023-05-16T10:33:04.694Z,40.50
2023-05-16T10:38:24.876Z,40.65
2023-05-16T10:41:01.272Z,40.22
2023-05-16T10:43:33.919Z,39.97
2023-05-16T10:46:26.622Z,40.30
2023-05-16T10:49:06.310Z,39.30
2023-05-16T10:51:40.238Z,38.31
2023-05-16T10:54:36.153Z,38.49
2023-05-16T11:00:24.900Z,38.32
2023-05-16T11:02:54.215Z,38.91
2023-05-16T11:05:38.500Z,38.22
2023-05-16T11:08:11.596Z,37.97
2023-05-16T11:10:42.394Z,37.72
2023-05-16T11:13:28.465Z,38.37
2023-05-16T11:18:52.552Z,38.80
2023-05-16T11:21:39.139Z,39.42
2023-05-16T11:27:56.694Z,38.67
2023-05-16T11:30:45.559Z,39.17
2023-05-16T11:33:15.448Z,39.14
2023-05-16T11:35:49.530Z,39.48
2023-05-16T11:38:18.371Z,39.73
2023-05-16T11:41:03.294Z,40.10
2023-05-16T11:43:47.960Z,40.26
2023-05-16T11:46:38.494Z,40.51
2023-05-16T11:49:10.220Z,40.80
2023-05-16T11:54:35.550Z,41.68
2023-05-16T11:57:05.196Z,42.03
2023-05-16T11:59:33.528Z,42.24
2023-05-16T12:02:07.279Z,42.60
2023-05-16T12:04:36.471Z,42.45
2023-05-16T12:07:05.873Z,42.72
2023-05-16T12:09:36.422Z,42.76
2023-05-16T12:12:15.770Z,42.66
2023-05-16T12:14:47.122Z,42.66
2023-05-16T12:17:17.689Z,42.59
2023-05-16T12:19:48.725Z,42.44
2023-05-16T12:22:20.477Z,41.88
2023-05-16T12:24:49.371Z,41.87
2023-05-16T12:27:27.901Z,41.37
2023-05-16T12:30:02.354Z,41.55
2023-05-16T12:32:54.708Z,42.05
2023-05-16T12:35:23.659Z,41.73
2023-05-16T12:37:52.811Z,41.14
2023-05-16T12:40:21.293Z,40.20
2023-05-16T12:42:54.561Z,40.97
2023-05-16T12:45:24.397Z,40.88
2023-05-16T12:48:45.152Z,40.84
2023-05-16T12:51:16.491Z,40.90
2023-05-16T12:54:01.378Z,40.14
2023-05-16T12:56:51.706Z,39.88
2023-05-16T12:59:30.611Z,40.37
2023-05-16T13:02:00.403Z,40.59
2023-05-16T13:08:08.152Z,41.80
2023-05-16T13:10:40.037Z,40.01
2023-05-16T13:13:35.562Z,37.54
2023-05-16T13:16:05.028Z,37.11
2023-05-16T13:18:34.480Z,38.35
2023-05-16T13:21:04.640Z,37.49
2023-05-16T13:24:08.682Z,37.67
2023-05-16T13:33:18.732Z,36.92
2023-05-16T13:35:48.164Z,36.57
2023-05-16T13:41:21.212Z,36.96
2023-05-16T13:44:08.557Z,38.17
2023-05-16T13:47:02.186Z,38.26
2023-05-16T13:49:34.090Z,37.42
2023-05-16T13:52:02.422Z,37.52
2023-05-16T13:54:33.665Z,37.49
2023-05-16T14:09:03.873Z,33.23
2023-05-16T14:14:47.116Z,33.11
2023-05-16T14:20:23.187Z,31.99
2023-05-16T14:23:29.231Z,32.87
2023-05-16T14:26:19.488Z,32.93
2023-05-16T14:31:44.887Z,33.12
2023-05-16T14:34:15.063Z,34.30
2023-05-16T14:36:44.491Z,33.81
2023-05-16T14:39:18.695Z,33.71
2023-05-16T14:41:58.469Z,33.60
2023-05-16T14:44:37.276Z,31.42
2023-05-16T14:47:23.358Z,31.43
2023-05-16T14:50:03.916Z,30.91
2023-05-16T14:52:34.594Z,29.62
2023-05-16T14:55:10.177Z,29.92
2023-05-16T14:57:41.710Z,30.25
2023-05-16T15:00:14.038Z,29.99
2023-05-16T15:02:42.690Z,29.44
2023-05-16T15:05:21.073Z,28.88
2023-05-16T15:07:54.327Z,28.30
2023-05-16T15:10:30.478Z,27.37
2023-05-16T15:13:14.895Z,27.22
2023-05-16T15:15:47.488Z,26.21
2023-05-16T15:18:36.383Z,26.51
2023-05-16T15:21:05.700Z,27.97
2023-05-16T15:23:34.551Z,28.24
2023-05-16T15:29:35.091Z,28.63
2023-05-16T15:34:56.405Z,29.55
2023-05-16T15:40:55.071Z,29.07
2023-05-16T15:43:35.167Z,29.25
2023-05-16T15:46:19.479Z,29.09
2023-05-16T15:49:01.809Z,29.39
2023-05-16T15:54:13.510Z,29.65
2023-05-16T15:56:44.172Z,29.82
2023-05-16T15:59:14.389Z,30.02
2023-05-16T16:08:10.383Z,29.47
2023-05-16T16:10:48.064Z,29.29
2023-05-16T16:14:18.774Z,29.54
2023-05-16T16:17:10.466Z,29.91
2023-05-16T16:22:29.295Z,29.59
2023-05-16T16:25:14.466Z,28.99
2023-05-16T16:39:13.913Z,26.71
2023-05-16T16:42:17.562Z,26.97
2023-05-16T16:48:09.536Z,26.70
2023-05-16T16:50:37.880Z,26.71
2023-05-16T16:54:06.164Z,26.96
2023-05-16T16:56:34.963Z,28.04
2023-05-16T16:59:26.584Z,28.53
2023-05-16T17:02:01.249Z,27.69
2023-05-16T17:04:37.112Z,26.57
2023-05-16T17:07:59.985Z,26.13
2023-05-16T17:16:48.963Z,27.05
2023-05-16T17:19:17.812Z,27.29
2023-05-16T17:27:20.784Z,26.16
2023-05-16T17:29:50.796Z,26.94
2023-05-16T17:35:28.504Z,25.86
2023-05-16T20:16:41.091Z,38.18
2023-05-16T21:56:22.784Z,43.05
2023-05-16T22:05:01.314Z,43.73
2023-05-16T23:50:36.729Z,48.27
2023-05-16T23:55:50.102Z,48.10
